createdAt,value
2023-02-02T00:00:54.822Z,48.50
2023-02-02T00:01:54.808Z,47.86
2023-02-02T00:02:54.875Z,49.63
2023-02-02T00:03:54.800Z,54.62
2023-02-02T00:04:54.743Z,50.11
2023-02-02T00:05:54.744Z,50.92
2023-02-02T00:06:54.764Z,47.86
2023-02-02T00:07:54.730Z,48.82
2023-02-02T00:08:54.858Z,50.60
2023-02-02T00:09:54.745Z,48.82
2023-02-02T00:10:54.703Z,49.15
2023-02-02T00:11:54.744Z,48.34
2023-02-02T00:12:54.681Z,48.02
2023-02-02T00:13:54.673Z,48.34
2023-02-02T00:14:54.683Z,49.15
2023-02-02T00:15:54.729Z,48.34
2023-02-02T00:16:54.709Z,47.86
2023-02-02T00:17:54.699Z,48.50
2023-02-02T00:18:54.672Z,47.70
2023-02-02T00:19:54.675Z,49.47
2023-02-02T00:20:54.637Z,50.11
2023-02-02T00:21:54.615Z,53.66
2023-02-02T00:22:54.625Z,53.50
2023-02-02T00:23:54.719Z,51.88
2023-02-02T00:24:54.647Z,58.81
2023-02-02T00:25:54.678Z,54.79
2023-02-02T00:26:54.696Z,50.60
2023-02-02T00:27:54.585Z,49.15
2023-02-02T00:28:54.595Z,48.98
2023-02-02T00:29:54.603Z,49.31
2023-02-02T00:30:54.638Z,48.50
2023-02-02T00:31:54.674Z,50.43
2023-02-02T00:32:54.546Z,62.20
2023-02-02T00:33:54.579Z,50.92
2023-02-02T00:34:54.599Z,49.47
2023-02-02T00:35:54.607Z,57.04
2023-02-02T00:36:54.540Z,57.52
2023-02-02T00:37:54.523Z,62.36
2023-02-02T00:38:54.534Z,58.01
2023-02-02T00:39:54.565Z,55.27
2023-02-02T00:40:54.512Z,54.30
2023-02-02T00:41:54.495Z,48.66
2023-02-02T00:42:54.523Z,58.81
2023-02-02T00:43:54.541Z,52.69
2023-02-02T00:44:54.491Z,51.88
2023-02-02T00:45:54.527Z,50.76
2023-02-02T00:46:54.483Z,49.63
2023-02-02T00:47:54.451Z,51.40
2023-02-02T00:48:54.447Z,53.50
2023-02-02T00:49:54.480Z,50.92
2023-02-02T00:50:54.445Z,48.66
2023-02-02T00:51:54.459Z,54.14
2023-02-02T00:52:54.461Z,52.21
2023-02-02T00:53:54.452Z,49.15
2023-02-02T00:54:54.437Z,52.85
2023-02-02T00:55:54.429Z,56.72
2023-02-02T00:56:54.383Z,47.86
2023-02-02T00:57:54.508Z,49.15
2023-02-02T00:58:54.438Z,47.86
2023-02-02T00:59:54.408Z,50.27
2023-02-02T01:00:54.420Z,47.70
2023-02-02T01:01:54.431Z,48.82
2023-02-02T01:02:54.357Z,48.98
2023-02-02T01:03:54.380Z,56.56
2023-02-02T01:04:54.353Z,48.82
2023-02-02T01:05:54.405Z,49.15
2023-02-02T01:06:54.381Z,48.66
2023-02-02T01:07:54.338Z,51.40
2023-02-02T01:08:54.341Z,48.34
2023-02-02T01:09:54.310Z,47.86
2023-02-02T01:10:54.347Z,48.66
2023-02-02T01:11:54.353Z,49.15
2023-02-02T01:12:54.314Z,47.70
2023-02-02T01:13:54.289Z,48.82
2023-02-02T01:14:54.329Z,50.92
2023-02-02T01:15:54.292Z,48.82
2023-02-02T01:16:54.284Z,47.53
2023-02-02T01:17:54.347Z,47.86
2023-02-02T01:18:54.292Z,49.31
2023-02-02T01:19:54.264Z,47.86
2023-02-02T01:20:54.229Z,47.70
2023-02-02T01:21:54.245Z,47.86
2023-02-02T01:22:54.308Z,50.11
2023-02-02T01:23:54.234Z,63.81
2023-02-02T01:24:54.221Z,48.66
2023-02-02T01:25:54.249Z,48.82
2023-02-02T01:26:54.259Z,47.53
2023-02-02T01:27:54.204Z,47.53
2023-02-02T01:28:54.216Z,49.31
2023-02-02T01:29:54.232Z,50.43
2023-02-02T01:30:54.231Z,48.34
2023-02-02T01:31:54.232Z,47.70
2023-02-02T01:32:54.174Z,47.70
2023-02-02T01:33:54.177Z,49.79
2023-02-02T01:34:54.215Z,48.18
2023-02-02T01:35:54.153Z,47.86
2023-02-02T01:36:54.159Z,48.02
2023-02-02T01:37:54.177Z,49.47
2023-02-02T01:38:54.140Z,47.86
2023-02-02T01:39:54.162Z,48.02
2023-02-02T01:40:54.122Z,48.18
2023-02-02T01:41:54.177Z,49.79
2023-02-02T01:42:54.092Z,48.02
2023-02-02T01:43:54.104Z,47.86
2023-02-02T01:44:54.110Z,48.82
2023-02-02T01:45:54.142Z,47.70
2023-02-02T01:46:54.089Z,47.53
2023-02-02T01:47:54.085Z,47.53
2023-02-02T01:48:54.151Z,50.92
2023-02-02T01:49:54.126Z,49.31
2023-02-02T01:50:54.049Z,47.86
2023-02-02T01:51:54.043Z,48.18
2023-02-02T01:52:54.039Z,48.34
2023-02-02T01:53:54.041Z,48.34
2023-02-02T01:54:54.091Z,49.15
2023-02-02T01:55:54.082Z,48.50
2023-02-02T01:56:54.056Z,57.69
2023-02-02T01:57:54.016Z,49.31
2023-02-02T01:58:54.002Z,48.34
2023-02-02T01:59:54.045Z,47.70
2023-02-02T02:00:54.008Z,47.70
2023-02-02T02:01:53.992Z,47.37
2023-02-02T02:02:53.973Z,47.53
2023-02-02T02:03:53.991Z,47.70
2023-02-02T02:04:54.013Z,47.53
2023-02-02T02:05:54.048Z,49.15
2023-02-02T02:06:53.971Z,47.53
2023-02-02T02:07:53.969Z,48.02
2023-02-02T02:08:53.962Z,49.15
2023-02-02T02:09:53.929Z,48.98
2023-02-02T02:10:53.955Z,48.98
2023-02-02T02:11:53.958Z,48.18
2023-02-02T02:12:53.928Z,48.18
2023-02-02T02:13:53.919Z,48.02
2023-02-02T02:14:53.916Z,47.70
2023-02-02T02:15:53.923Z,49.95
2023-02-02T02:16:54.019Z,47.86
2023-02-02T02:17:53.897Z,47.86
2023-02-02T02:18:53.899Z,48.98
2023-02-02T02:19:53.895Z,49.95
2023-02-02T02:20:53.861Z,48.82
2023-02-02T02:21:53.932Z,47.53
2023-02-02T02:22:53.836Z,49.47
2023-02-02T02:23:53.933Z,50.92
2023-02-02T02:24:53.871Z,50.76
2023-02-02T02:25:53.843Z,49.95
2023-02-02T02:26:53.917Z,50.27
2023-02-02T02:27:53.873Z,47.53
2023-02-02T02:28:53.892Z,48.02
2023-02-02T02:29:53.798Z,49.47
2023-02-02T02:30:54.894Z,47.86
2023-02-02T02:31:53.911Z,51.40
2023-02-02T02:32:53.778Z,48.50
2023-02-02T02:33:53.819Z,47.70
2023-02-02T02:34:53.805Z,48.02
2023-02-02T02:35:53.770Z,47.70
2023-02-02T02:36:53.835Z,49.15
2023-02-02T02:37:53.778Z,48.18
2023-02-02T02:38:53.778Z,62.68
2023-02-02T02:39:53.787Z,47.86
2023-02-02T02:40:53.731Z,47.86
2023-02-02T02:41:53.747Z,51.40
2023-02-02T02:42:53.777Z,53.33
2023-02-02T02:43:53.717Z,47.37
2023-02-02T02:44:53.726Z,57.69
2023-02-02T02:45:53.804Z,51.72
2023-02-02T02:46:53.687Z,54.95
2023-02-02T02:47:53.713Z,52.53
2023-02-02T02:48:53.691Z,49.31
2023-02-02T02:49:53.724Z,47.37
2023-02-02T02:50:53.666Z,47.53
2023-02-02T02:51:53.689Z,55.27
2023-02-02T02:52:53.678Z,53.50
2023-02-02T02:53:53.726Z,50.92
2023-02-02T02:54:53.697Z,47.53
2023-02-02T02:55:53.713Z,55.27
2023-02-02T02:56:53.653Z,57.52
2023-02-02T02:57:53.650Z,49.79
2023-02-02T02:58:53.630Z,47.70
2023-02-02T02:59:53.630Z,53.98
2023-02-02T03:00:53.640Z,49.15
2023-02-02T03:01:53.674Z,52.85
2023-02-02T03:02:53.685Z,54.79
2023-02-02T03:03:53.622Z,51.88
2023-02-02T03:04:53.666Z,60.75
2023-02-02T03:05:53.653Z,52.85
2023-02-02T03:06:54.627Z,47.37
2023-02-02T03:07:53.641Z,48.50
2023-02-02T03:08:53.589Z,51.08
2023-02-02T03:09:53.572Z,48.50
2023-02-02T03:10:53.627Z,48.98
2023-02-02T03:11:54.566Z,53.66
2023-02-02T03:12:53.542Z,59.62
2023-02-02T03:13:53.528Z,55.91
2023-02-02T03:14:53.603Z,49.47
2023-02-02T03:15:53.595Z,47.70
2023-02-02T03:16:53.523Z,55.75
2023-02-02T03:17:53.519Z,49.63
2023-02-02T03:18:53.502Z,48.18
2023-02-02T03:19:53.565Z,52.21
2023-02-02T03:20:53.544Z,49.79
2023-02-02T03:21:53.541Z,51.88
2023-02-02T03:22:53.486Z,50.43
2023-02-02T03:23:53.491Z,53.33
2023-02-02T03:24:53.475Z,55.59
2023-02-02T03:25:53.447Z,48.18
2023-02-02T03:26:53.509Z,52.05
2023-02-02T03:27:53.464Z,58.97
2023-02-02T03:28:53.490Z,51.24
2023-02-02T03:29:53.451Z,51.72
2023-02-02T03:30:53.533Z,56.40
2023-02-02T03:31:53.470Z,55.27
2023-02-02T03:32:53.442Z,47.86
2023-02-02T03:33:53.505Z,49.15
2023-02-02T03:34:53.431Z,61.07
2023-02-02T03:35:53.421Z,59.78
2023-02-02T03:36:53.431Z,57.36
2023-02-02T03:37:53.479Z,55.75
2023-02-02T03:38:53.455Z,55.75
2023-02-02T03:39:53.876Z,59.78
2023-02-02T03:40:54.395Z,59.14
2023-02-02T03:41:53.431Z,62.84
2023-02-02T03:42:53.405Z,49.79
2023-02-02T03:43:53.354Z,49.95
2023-02-02T03:44:53.407Z,48.98
2023-02-02T03:45:53.383Z,53.98
2023-02-02T03:46:53.356Z,59.14
2023-02-02T03:47:53.397Z,54.79
2023-02-02T03:48:53.348Z,58.01
2023-02-02T03:49:53.344Z,53.50
2023-02-02T03:50:53.302Z,47.37
2023-02-02T03:51:53.409Z,53.98
2023-02-02T03:52:53.327Z,60.10
2023-02-02T03:53:53.340Z,57.69
2023-02-02T03:54:53.270Z,58.17
2023-02-02T03:55:53.390Z,48.98
2023-02-02T03:56:53.266Z,52.85
2023-02-02T03:57:53.383Z,63.16
2023-02-02T03:58:53.303Z,62.20
2023-02-02T03:59:53.311Z,64.78
2023-02-02T04:00:53.254Z,63.00
2023-02-02T04:01:53.333Z,61.87
2023-02-02T04:02:53.267Z,61.23
2023-02-02T04:03:53.223Z,61.71
2023-02-02T04:04:53.240Z,68.64
2023-02-02T04:05:53.227Z,62.36
2023-02-02T04:06:53.227Z,58.33
2023-02-02T04:07:53.213Z,61.07
2023-02-02T04:08:53.212Z,57.52
2023-02-02T04:09:53.242Z,55.91
2023-02-02T04:10:53.180Z,58.17
2023-02-02T04:11:53.202Z,54.79
2023-02-02T04:12:53.182Z,50.11
2023-02-02T04:13:53.180Z,66.55
2023-02-02T04:14:53.205Z,58.17
2023-02-02T04:15:53.169Z,57.69
2023-02-02T04:16:53.215Z,52.53
2023-02-02T04:17:53.135Z,54.95
2023-02-02T04:18:53.215Z,61.23
2023-02-02T04:19:53.173Z,61.87
2023-02-02T04:20:53.151Z,57.20
2023-02-02T04:21:53.097Z,58.97
2023-02-02T04:22:53.168Z,58.81
2023-02-02T04:23:54.143Z,61.87
2023-02-02T04:24:53.122Z,57.69
2023-02-02T04:25:53.096Z,61.39
2023-02-02T04:26:54.127Z,58.97
2023-02-02T04:27:53.123Z,56.56
2023-02-02T04:28:53.103Z,58.17
2023-02-02T04:29:53.088Z,58.01
2023-02-02T04:30:53.117Z,62.68
2023-02-02T04:31:53.090Z,60.75
2023-02-02T04:32:53.037Z,59.62
2023-02-02T04:33:53.094Z,63.00
2023-02-02T04:34:53.045Z,58.33
2023-02-02T04:35:53.008Z,60.10
2023-02-02T04:36:53.032Z,58.49
2023-02-02T04:37:53.034Z,56.40
2023-02-02T04:38:53.035Z,58.33
2023-02-02T04:39:52.996Z,57.36
2023-02-02T04:40:52.990Z,62.52
2023-02-02T04:41:52.987Z,58.81
2023-02-02T04:42:52.957Z,60.75
2023-02-02T04:43:52.989Z,57.52
2023-02-02T04:44:52.950Z,59.94
2023-02-02T04:45:53.066Z,57.36
2023-02-02T04:46:52.935Z,60.10
2023-02-02T04:47:52.975Z,56.24
2023-02-02T04:48:52.948Z,60.10
2023-02-02T04:49:52.950Z,56.24
2023-02-02T04:50:52.983Z,59.94
2023-02-02T04:51:52.916Z,61.07
2023-02-02T04:52:52.906Z,60.10
2023-02-02T04:53:52.917Z,61.23
2023-02-02T04:54:52.912Z,61.55
2023-02-02T04:55:52.908Z,55.43
2023-02-02T04:56:52.955Z,58.97
2023-02-02T04:57:52.904Z,60.26
2023-02-02T04:58:52.886Z,58.65
2023-02-02T04:59:52.884Z,58.49
2023-02-02T05:00:52.996Z,59.78
2023-02-02T05:01:52.863Z,59.78
2023-02-02T05:02:53.870Z,60.91
2023-02-02T05:03:52.821Z,56.56
2023-02-02T05:04:52.825Z,58.17
2023-02-02T05:05:52.851Z,59.94
2023-02-02T05:06:52.840Z,60.59
2023-02-02T05:07:52.876Z,61.23
2023-02-02T05:08:52.802Z,57.52
2023-02-02T05:09:53.793Z,60.59
2023-02-02T05:10:52.811Z,60.91
2023-02-02T05:11:52.857Z,53.50
2023-02-02T05:12:52.776Z,57.85
2023-02-02T05:13:52.798Z,63.49
2023-02-02T05:14:52.762Z,59.94
2023-02-02T05:15:52.778Z,57.20
2023-02-02T05:16:52.833Z,60.26
2023-02-02T05:17:52.755Z,59.46
2023-02-02T05:18:52.755Z,58.97
2023-02-02T05:19:52.810Z,60.42
2023-02-02T05:20:52.722Z,63.65
2023-02-02T05:21:52.766Z,60.91
2023-02-02T05:22:52.703Z,60.26
2023-02-02T05:23:52.762Z,59.30
2023-02-02T05:24:52.747Z,58.01
2023-02-02T05:25:52.689Z,60.26
2023-02-02T05:26:52.807Z,61.23
2023-02-02T05:27:52.714Z,58.01
2023-02-02T05:28:52.683Z,61.87
2023-02-02T05:29:52.692Z,61.07
2023-02-02T05:30:52.705Z,60.75
2023-02-02T05:31:52.681Z,60.10
2023-02-02T05:32:52.822Z,59.14
2023-02-02T05:33:52.635Z,62.36
2023-02-02T05:34:52.633Z,59.46
2023-02-02T05:35:52.663Z,61.87
2023-02-02T05:36:52.631Z,60.91
2023-02-02T05:37:53.620Z,56.88
2023-02-02T05:38:52.594Z,61.71
2023-02-02T05:39:52.619Z,60.59
2023-02-02T05:40:52.653Z,60.10
2023-02-02T05:41:52.594Z,60.26
2023-02-02T05:42:52.586Z,59.78
2023-02-02T05:43:52.561Z,60.10
2023-02-02T05:44:52.594Z,58.97
2023-02-02T05:45:52.586Z,61.87
2023-02-02T05:46:52.588Z,62.20
2023-02-02T05:47:52.546Z,64.78
2023-02-02T05:48:52.561Z,59.78
2023-02-02T05:49:52.675Z,62.04
2023-02-02T05:50:52.527Z,61.71
2023-02-02T05:51:52.570Z,60.75
2023-02-02T05:52:52.560Z,61.87
2023-02-02T05:53:52.529Z,63.00
2023-02-02T05:54:52.553Z,61.87
2023-02-02T05:55:52.517Z,60.10
2023-02-02T05:56:52.506Z,60.26
2023-02-02T05:57:52.533Z,60.26
2023-02-02T05:58:52.484Z,60.10
2023-02-02T05:59:52.478Z,58.97
2023-02-02T06:00:53.974Z,61.71
2023-02-02T06:01:52.507Z,66.23
2023-02-02T06:02:52.570Z,67.51
2023-02-02T06:03:52.543Z,66.06
2023-02-02T06:04:52.470Z,64.94
2023-02-02T06:05:52.440Z,60.26
2023-02-02T06:06:52.476Z,59.46
2023-02-02T06:07:52.412Z,59.46
2023-02-02T06:08:52.414Z,58.65
2023-02-02T06:09:52.447Z,57.69
2023-02-02T06:10:52.467Z,62.84
2023-02-02T06:11:52.484Z,63.33
2023-02-02T06:12:52.395Z,64.13
2023-02-02T06:13:52.386Z,61.39
2023-02-02T06:14:52.515Z,61.23
2023-02-02T06:15:52.483Z,61.07
2023-02-02T06:16:52.434Z,62.68
2023-02-02T06:17:52.415Z,60.75
2023-02-02T06:18:52.365Z,60.26
2023-02-02T06:19:52.342Z,59.78
2023-02-02T06:20:52.356Z,61.55
2023-02-02T06:21:52.378Z,61.55
2023-02-02T06:22:52.392Z,60.42
2023-02-02T06:23:52.317Z,58.81
2023-02-02T06:24:52.375Z,62.84
2023-02-02T06:25:52.307Z,59.94
2023-02-02T06:26:52.326Z,62.20
2023-02-02T06:27:52.334Z,61.23
2023-02-02T06:28:52.297Z,58.65
2023-02-02T06:29:52.276Z,63.33
2023-02-02T06:30:52.317Z,61.55
2023-02-02T06:31:52.506Z,59.14
2023-02-02T06:32:52.309Z,60.59
2023-02-02T06:33:52.343Z,60.91
2023-02-02T06:34:52.244Z,62.20
2023-02-02T06:35:52.225Z,62.04
2023-02-02T06:36:52.266Z,62.20
2023-02-02T06:37:52.252Z,61.55
2023-02-02T06:38:52.223Z,61.23
2023-02-02T06:39:52.227Z,61.07
2023-02-02T06:40:52.225Z,61.23
2023-02-02T06:41:52.290Z,61.55
2023-02-02T06:42:52.217Z,58.49
2023-02-02T06:43:52.244Z,60.91
2023-02-02T06:44:52.207Z,61.71
2023-02-02T06:45:52.182Z,64.45
2023-02-02T06:46:52.221Z,62.36
2023-02-02T06:47:52.193Z,66.39
2023-02-02T06:48:52.211Z,60.75
2023-02-02T06:49:52.204Z,60.26
2023-02-02T06:50:52.190Z,63.65
2023-02-02T06:51:52.196Z,60.26
2023-02-02T06:52:52.168Z,60.26
2023-02-02T06:53:52.132Z,60.75
2023-02-02T06:54:52.212Z,61.87
2023-02-02T06:55:52.204Z,61.71
2023-02-02T06:56:52.105Z,65.26
2023-02-02T06:57:52.112Z,58.81
2023-02-02T06:58:52.125Z,61.87
2023-02-02T06:59:52.143Z,59.30
2023-02-02T07:00:52.138Z,61.71
2023-02-02T07:01:52.241Z,62.52
2023-02-02T07:02:52.109Z,59.14
2023-02-02T07:03:52.071Z,61.71
2023-02-02T07:04:52.106Z,60.26
2023-02-02T07:05:52.103Z,60.75
2023-02-02T07:06:52.192Z,60.75
2023-02-02T07:07:52.068Z,63.16
2023-02-02T07:09:02.124Z,61.07
2023-02-02T07:09:58.057Z,63.00
2023-02-02T07:11:14.363Z,59.14
2023-02-02T07:11:53.109Z,60.75
2023-02-02T07:12:52.019Z,61.23
2023-02-02T07:13:52.042Z,59.78
2023-02-02T07:14:52.041Z,61.87
2023-02-02T07:15:52.091Z,60.59
2023-02-02T07:16:52.051Z,61.23
2023-02-02T07:17:52.008Z,61.71
2023-02-02T07:18:52.070Z,61.55
2023-02-02T07:19:51.961Z,61.71
2023-02-02T07:20:52.000Z,65.58
2023-02-02T07:21:52.010Z,62.84
2023-02-02T07:22:51.994Z,62.68
2023-02-02T07:23:51.959Z,65.42
2023-02-02T07:24:51.932Z,60.10
2023-02-02T07:25:51.952Z,63.49
2023-02-02T07:26:52.051Z,63.81
2023-02-02T07:27:51.948Z,62.52
2023-02-02T07:28:51.949Z,64.13
2023-02-02T07:29:51.914Z,64.78
2023-02-02T07:30:52.072Z,60.75
2023-02-02T07:31:51.949Z,60.10
2023-02-02T07:32:51.941Z,60.75
2023-02-02T07:33:51.940Z,60.91
2023-02-02T07:34:51.895Z,62.20
2023-02-02T07:35:51.956Z,62.68
2023-02-02T07:36:51.948Z,61.71
2023-02-02T07:37:51.880Z,61.23
2023-02-02T07:38:51.868Z,60.91
2023-02-02T07:39:51.860Z,62.20
2023-02-02T07:40:51.924Z,62.20
2023-02-02T07:41:51.847Z,61.39
2023-02-02T07:42:51.834Z,60.42
2023-02-02T07:43:51.847Z,60.91
2023-02-02T07:44:52.016Z,60.75
2023-02-02T07:45:51.839Z,61.55
2023-02-02T07:46:51.865Z,60.26
2023-02-02T07:47:51.803Z,59.62
2023-02-02T07:48:51.796Z,60.75
2023-02-02T07:49:51.849Z,59.62
2023-02-02T07:50:51.796Z,60.42
2023-02-02T07:51:51.848Z,58.33
2023-02-02T07:52:51.822Z,62.20
2023-02-02T07:53:51.814Z,63.81
2023-02-02T07:54:57.669Z,61.71
2023-02-02T07:55:52.782Z,59.30
2023-02-02T07:56:51.815Z,63.97
2023-02-02T07:57:51.774Z,64.45
2023-02-02T07:58:51.814Z,63.33
2023-02-02T07:59:51.916Z,63.49
2023-02-02T08:00:51.897Z,62.52
2023-02-02T08:01:51.799Z,65.10
2023-02-02T08:02:51.766Z,64.78
2023-02-02T08:03:51.766Z,61.55
2023-02-02T08:04:51.792Z,59.94
2023-02-02T08:05:51.724Z,61.39
2023-02-02T08:06:51.715Z,62.04
2023-02-02T08:07:51.726Z,62.04
2023-02-02T08:08:51.730Z,57.04
2023-02-02T08:09:51.665Z,54.14
2023-02-02T08:10:51.726Z,59.78
2023-02-02T08:11:51.672Z,60.75
2023-02-02T08:12:51.796Z,61.07
2023-02-02T08:13:51.660Z,64.61
2023-02-02T08:14:51.652Z,66.87
2023-02-02T08:15:51.699Z,63.00
2023-02-02T08:16:51.665Z,58.97
2023-02-02T08:17:51.681Z,58.81
2023-02-02T08:18:51.686Z,58.81
2023-02-02T08:19:51.633Z,65.58
2023-02-02T08:20:51.648Z,60.91
2023-02-02T08:21:51.632Z,59.30
2023-02-02T08:22:51.615Z,58.97
2023-02-02T08:23:51.644Z,64.78
2023-02-02T08:24:51.609Z,67.35
2023-02-02T08:25:51.599Z,59.94
2023-02-02T08:26:51.624Z,66.55
2023-02-02T08:27:51.712Z,60.59
2023-02-02T08:28:51.638Z,60.91
2023-02-02T08:29:51.609Z,61.07
2023-02-02T08:30:51.604Z,59.78
2023-02-02T08:31:51.614Z,54.79
2023-02-02T08:32:51.565Z,56.72
2023-02-02T08:33:51.592Z,57.85
2023-02-02T08:34:51.527Z,59.94
2023-02-02T08:35:51.530Z,58.81
2023-02-02T08:36:51.522Z,62.68
2023-02-02T08:37:51.496Z,60.75
2023-02-02T08:38:51.540Z,54.79
2023-02-02T08:39:51.543Z,57.85
2023-02-02T08:40:51.490Z,61.39
2023-02-02T08:41:51.479Z,62.20
2023-02-02T08:42:51.492Z,61.23
2023-02-02T08:43:51.454Z,61.71
2023-02-02T08:46:00.250Z,60.75
2023-02-02T08:46:03.050Z,63.65
2023-02-02T08:46:52.525Z,63.81
2023-02-02T08:48:02.004Z,61.55
2023-02-02T08:48:53.445Z,63.00
2023-02-02T08:49:51.451Z,75.73
2023-02-02T08:50:51.460Z,59.14
2023-02-02T08:51:51.437Z,60.75
2023-02-02T08:52:51.438Z,61.87
2023-02-02T08:53:51.449Z,61.87
2023-02-02T08:54:51.392Z,79.12
2023-02-02T08:55:51.388Z,87.17
2023-02-02T08:56:51.383Z,60.42
2023-02-02T08:57:51.418Z,63.16
2023-02-02T08:58:51.448Z,86.85
2023-02-02T08:59:51.382Z,60.42
2023-02-02T09:00:51.423Z,63.97
2023-02-02T09:01:51.539Z,60.10
2023-02-02T09:02:51.366Z,57.36
2023-02-02T09:03:51.380Z,58.33
2023-02-02T09:04:51.361Z,59.78
2023-02-02T09:05:51.348Z,60.42
2023-02-02T09:06:51.367Z,57.20
2023-02-02T09:07:51.313Z,60.75
2023-02-02T09:08:51.325Z,62.04
2023-02-02T09:09:52.305Z,60.10
2023-02-02T09:10:51.385Z,62.20
2023-02-02T09:11:51.357Z,58.49
2023-02-02T09:12:51.284Z,61.71
2023-02-02T09:13:51.292Z,59.46
2023-02-02T09:14:51.275Z,61.71
2023-02-02T09:15:51.246Z,60.75
2023-02-02T09:16:51.385Z,60.42
2023-02-02T09:17:51.249Z,61.55
2023-02-02T09:18:51.283Z,60.10
2023-02-02T09:19:51.245Z,61.55
2023-02-02T09:20:51.215Z,60.42
2023-02-02T09:21:51.238Z,61.23
2023-02-02T09:22:51.301Z,61.87
2023-02-02T09:23:51.273Z,61.39
2023-02-02T09:24:51.208Z,60.75
2023-02-02T09:25:51.224Z,60.91
2023-02-02T09:26:51.216Z,60.26
2023-02-02T09:27:51.239Z,62.52
2023-02-02T09:28:51.175Z,62.68
2023-02-02T09:29:51.181Z,60.42
2023-02-02T09:30:51.196Z,62.04
2023-02-02T09:31:51.215Z,60.59
2023-02-02T09:32:51.245Z,60.10
2023-02-02T09:33:51.168Z,61.07
2023-02-02T09:34:52.191Z,60.42
2023-02-02T09:35:51.132Z,60.26
2023-02-02T09:36:51.130Z,61.55
2023-02-02T09:37:51.171Z,61.55
2023-02-02T09:38:51.220Z,60.10
2023-02-02T09:39:51.153Z,63.81
2023-02-02T09:40:51.128Z,60.91
2023-02-02T09:41:51.108Z,59.78
2023-02-02T09:42:51.091Z,60.75
2023-02-02T09:43:51.144Z,59.78
2023-02-02T09:44:51.083Z,59.94
2023-02-02T09:45:51.141Z,60.59
2023-02-02T09:46:51.072Z,60.75
2023-02-02T09:47:51.055Z,60.10
2023-02-02T09:48:51.117Z,59.78
2023-02-02T09:49:51.170Z,57.36
2023-02-02T09:50:51.052Z,58.33
2023-02-02T09:51:51.066Z,60.91
2023-02-02T09:52:51.046Z,59.14
2023-02-02T09:53:55.555Z,61.39
2023-02-02T09:54:53.054Z,61.71
2023-02-02T09:55:51.092Z,59.62
2023-02-02T09:56:51.022Z,61.39
2023-02-02T09:57:51.011Z,59.78
2023-02-02T09:58:51.005Z,60.10
2023-02-02T09:59:51.001Z,61.23
2023-02-02T10:00:51.044Z,60.75
2023-02-02T10:01:51.032Z,67.19
2023-02-02T10:02:50.983Z,65.58
2023-02-02T10:03:51.034Z,69.29
2023-02-02T10:04:50.981Z,66.23
2023-02-02T10:05:50.976Z,59.46
2023-02-02T10:06:50.992Z,65.90
2023-02-02T10:07:50.950Z,57.52
2023-02-02T10:08:50.963Z,58.01
2023-02-02T10:09:50.940Z,58.33
2023-02-02T10:10:50.926Z,61.87
2023-02-02T10:11:51.030Z,61.71
2023-02-02T10:12:50.924Z,60.26
2023-02-02T10:13:50.920Z,57.36
2023-02-02T10:14:51.081Z,61.07
2023-02-02T10:15:50.943Z,58.81
2023-02-02T10:16:50.959Z,61.71
2023-02-02T10:17:51.889Z,59.30
2023-02-02T10:18:50.885Z,61.39
2023-02-02T10:19:50.883Z,60.91
2023-02-02T10:20:50.912Z,60.26
2023-02-02T10:21:50.964Z,61.39
2023-02-02T10:22:50.862Z,57.85
2023-02-02T10:23:50.882Z,59.94
2023-02-02T10:24:50.866Z,58.97
2023-02-02T10:25:50.852Z,57.69
2023-02-02T10:26:50.970Z,57.69
2023-02-02T10:27:50.833Z,61.87
2023-02-02T10:28:50.851Z,63.65
2023-02-02T10:29:50.895Z,61.23
2023-02-02T10:30:50.956Z,63.33
2023-02-02T10:31:50.938Z,61.71
2023-02-02T10:32:50.817Z,62.20
2023-02-02T10:33:50.808Z,58.33
2023-02-02T10:34:55.584Z,61.07
2023-02-02T10:35:51.802Z,60.75
2023-02-02T10:36:50.802Z,63.00
2023-02-02T10:37:50.828Z,61.39
2023-02-02T10:38:50.797Z,61.23
2023-02-02T10:39:50.777Z,60.10
2023-02-02T10:40:50.798Z,60.10
2023-02-02T10:41:50.749Z,60.59
2023-02-02T10:42:50.772Z,59.94
2023-02-02T10:43:50.737Z,62.20
2023-02-02T10:44:50.775Z,60.42
2023-02-02T10:45:50.820Z,62.68
2023-02-02T10:46:50.888Z,62.04
2023-02-02T10:47:50.703Z,63.16
2023-02-02T10:48:50.737Z,62.52
2023-02-02T10:49:56.020Z,61.71
2023-02-02T10:50:52.691Z,62.36
2023-02-02T10:51:50.697Z,61.71
2023-02-02T10:52:50.725Z,63.65
2023-02-02T10:53:50.723Z,63.00
2023-02-02T10:54:57.323Z,63.16
2023-02-02T10:55:52.666Z,63.97
2023-02-02T10:56:50.654Z,64.13
2023-02-02T10:57:50.663Z,62.52
2023-02-02T10:58:50.748Z,63.33
2023-02-02T10:59:50.696Z,64.78
2023-02-02T11:00:50.625Z,62.20
2023-02-02T11:01:50.676Z,59.14
2023-02-02T11:02:50.651Z,62.20
2023-02-02T11:03:50.603Z,62.68
2023-02-02T11:04:50.780Z,62.20
2023-02-02T11:05:50.609Z,61.71
2023-02-02T11:06:50.601Z,61.87
2023-02-02T11:07:50.756Z,60.75
2023-02-02T11:08:50.597Z,60.91
2023-02-02T11:09:50.692Z,56.56
2023-02-02T11:10:50.575Z,59.14
2023-02-02T11:11:50.595Z,61.23
2023-02-02T11:12:50.558Z,60.59
2023-02-02T11:13:50.564Z,59.62
2023-02-02T11:14:50.539Z,60.26
2023-02-02T11:15:50.642Z,60.26
2023-02-02T11:16:50.622Z,61.71
2023-02-02T11:17:50.521Z,59.94
2023-02-02T11:18:50.571Z,60.75
2023-02-02T11:19:50.557Z,58.97
2023-02-02T11:20:50.548Z,63.81
2023-02-02T11:21:50.534Z,61.71
2023-02-02T11:22:50.504Z,61.07
2023-02-02T11:23:50.511Z,60.59
2023-02-02T11:24:50.524Z,62.20
2023-02-02T11:25:50.467Z,59.78
2023-02-02T11:26:50.568Z,61.55
2023-02-02T11:27:50.507Z,62.36
2023-02-02T11:28:50.458Z,56.56
2023-02-02T11:29:50.470Z,59.30
2023-02-02T11:30:50.582Z,61.55
2023-02-02T11:31:50.518Z,61.55
2023-02-02T11:32:50.428Z,57.85
2023-02-02T11:33:51.435Z,59.78
2023-02-02T11:34:50.420Z,59.94
2023-02-02T11:35:50.416Z,61.23
2023-02-02T11:36:50.475Z,60.26
2023-02-02T11:37:50.394Z,60.26
2023-02-02T11:38:50.416Z,60.75
2023-02-02T11:39:52.483Z,58.97
2023-02-02T11:40:51.393Z,58.49
2023-02-02T11:41:50.382Z,59.62
2023-02-02T11:42:50.383Z,62.68
2023-02-02T11:43:50.523Z,59.94
2023-02-02T11:44:50.363Z,59.62
2023-02-02T11:45:50.356Z,59.78
2023-02-02T11:46:50.385Z,63.33
2023-02-02T11:47:50.400Z,60.91
2023-02-02T11:48:50.365Z,59.14
2023-02-02T11:49:50.340Z,58.65
2023-02-02T11:50:50.339Z,58.65
2023-02-02T11:51:50.325Z,59.30
2023-02-02T11:52:50.372Z,58.01
2023-02-02T11:53:50.322Z,59.46
2023-02-02T11:54:50.287Z,57.69
2023-02-02T11:55:50.344Z,60.75
2023-02-02T11:56:50.290Z,58.33
2023-02-02T11:57:50.277Z,58.49
2023-02-02T11:58:50.328Z,61.23
2023-02-02T11:59:50.293Z,57.69
2023-02-02T12:00:50.279Z,61.71
2023-02-02T12:01:50.255Z,62.36
2023-02-02T12:02:50.257Z,61.87
2023-02-02T12:03:50.327Z,61.87
2023-02-02T12:04:50.314Z,60.10
2023-02-02T12:05:50.250Z,62.20
2023-02-02T12:06:50.239Z,63.81
2023-02-02T12:07:50.214Z,63.49
2023-02-02T12:08:50.239Z,62.84
2023-02-02T12:09:50.237Z,64.13
2023-02-02T12:10:50.219Z,63.49
2023-02-02T12:11:50.249Z,63.65
2023-02-02T12:12:50.193Z,62.84
2023-02-02T12:13:50.164Z,64.13
2023-02-02T12:14:50.255Z,63.81
2023-02-02T12:15:50.167Z,64.29
2023-02-02T12:16:50.167Z,63.49
2023-02-02T12:17:50.163Z,63.81
2023-02-02T12:18:50.150Z,64.78
2023-02-02T12:19:50.201Z,63.33
2023-02-02T12:20:50.126Z,61.71
2023-02-02T12:21:50.147Z,62.20
2023-02-02T12:22:50.143Z,62.36
2023-02-02T12:23:50.103Z,60.26
2023-02-02T12:24:50.150Z,62.68
2023-02-02T12:25:50.155Z,62.36
2023-02-02T12:26:50.179Z,61.23
2023-02-02T12:27:50.084Z,62.52
2023-02-02T12:28:51.171Z,63.33
2023-02-02T12:29:50.106Z,66.55
2023-02-02T12:30:50.146Z,63.33
2023-02-02T12:31:50.102Z,62.68
2023-02-02T12:32:50.070Z,62.04
2023-02-02T12:33:50.045Z,58.81
2023-02-02T12:34:50.048Z,63.00
2023-02-02T12:35:50.153Z,62.52
2023-02-02T12:36:50.042Z,62.36
2023-02-02T12:37:50.043Z,68.80
2023-02-02T12:38:50.041Z,60.91
2023-02-02T12:39:50.036Z,63.16
2023-02-02T12:40:50.126Z,62.68
2023-02-02T12:41:50.103Z,58.49
2023-02-02T12:42:50.088Z,58.65
2023-02-02T12:43:50.037Z,61.23
2023-02-02T12:44:50.005Z,59.78
2023-02-02T12:45:50.063Z,59.46
2023-02-02T12:46:49.988Z,60.42
2023-02-02T12:47:50.007Z,61.23
2023-02-02T12:48:49.988Z,59.14
2023-02-02T12:49:49.969Z,54.79
2023-02-02T12:50:49.947Z,61.87
2023-02-02T12:51:49.983Z,58.65
2023-02-02T12:52:49.944Z,59.94